createdAt,value
2022-12-20T00:01:29.229Z,99591.20
2022-12-20T00:03:59.420Z,99588.40
2022-12-20T00:06:26.904Z,99592.00
2022-12-20T00:09:00.354Z,99586.00
2022-12-20T00:11:28.828Z,99586.40
2022-12-20T00:13:56.146Z,99585.40
2022-12-20T00:16:26.057Z,99585.00
2022-12-20T00:18:56.211Z,99580.00
2022-12-20T00:21:23.345Z,99579.60
2022-12-20T00:23:51.811Z,99583.40
2022-12-20T00:26:22.374Z,99580.20
2022-12-20T00:28:49.200Z,99582.60
2022-12-20T00:31:18.938Z,99579.20
2022-12-20T00:33:48.494Z,99584.00
2022-12-20T00:36:16.415Z,99579.40
2022-12-20T00:38:46.195Z,99584.00
2022-12-20T00:41:17.273Z,99580.60
2022-12-20T00:43:44.570Z,99583.40
2022-12-20T00:46:14.400Z,99583.20
2022-12-20T00:48:41.739Z,99574.80
2022-12-20T00:51:12.907Z,99560.40
2022-12-20T00:53:39.884Z,99545.60
2022-12-20T00:56:07.833Z,99541.40
2022-12-20T00:58:36.982Z,99541.40
2022-12-20T01:01:05.432Z,99542.60
2022-12-20T01:03:32.064Z,99540.40
2022-12-20T01:06:02.151Z,99542.20
2022-12-20T01:08:31.291Z,99538.20
2022-12-20T01:11:08.799Z,99538.20
2022-12-20T01:13:39.077Z,99532.00
2022-12-20T01:16:22.871Z,99531.40
2022-12-20T01:18:50.260Z,99521.60
2022-12-20T01:21:19.431Z,99522.00
2022-12-20T01:23:46.272Z,99529.40
2022-12-20T01:26:17.653Z,99526.80
2022-12-20T01:28:47.029Z,99518.60
2022-12-20T01:31:17.256Z,99510.40
2022-12-20T01:33:45.942Z,99500.40
2022-12-20T01:36:17.825Z,99497.80
2022-12-20T01:38:44.525Z,99501.40
2022-12-20T01:41:23.037Z,99501.40
2022-12-20T01:43:52.610Z,99491.00
2022-12-20T01:46:22.588Z,99487.60
2022-12-20T01:48:56.667Z,99492.00
2022-12-20T01:51:25.646Z,99487.00
2022-12-20T01:54:01.848Z,99490.40
2022-12-20T01:56:28.361Z,99488.20
2022-12-20T01:58:56.922Z,99493.00
2022-12-20T02:01:25.560Z,99490.40
2022-12-20T02:03:54.641Z,99496.40
2022-12-20T02:06:26.077Z,99494.80
2022-12-20T02:08:58.588Z,99489.20
2022-12-20T02:11:45.087Z,99493.60
2022-12-20T02:14:51.717Z,99489.20
2022-12-20T02:18:15.009Z,99484.00
2022-12-20T02:21:14.456Z,99485.80
2022-12-20T02:24:05.786Z,99482.40
2022-12-20T02:27:08.740Z,99473.00
2022-12-20T02:30:00.260Z,99466.00
2022-12-20T02:32:38.346Z,99461.80
2022-12-20T02:35:09.927Z,99455.00
2022-12-20T02:37:36.486Z,99462.60
2022-12-20T02:40:05.583Z,99447.80
2022-12-20T02:42:33.603Z,99442.00
2022-12-20T02:45:15.771Z,99442.00
2022-12-20T02:48:02.193Z,99446.60
2022-12-20T02:50:49.322Z,99445.20
2022-12-20T02:53:17.149Z,99451.40
2022-12-20T02:55:53.351Z,99471.40
2022-12-20T02:58:44.576Z,99484.40
2022-12-20T03:01:20.741Z,99493.00
2022-12-20T03:03:48.372Z,99490.60
2022-12-20T03:06:14.957Z,99472.20
2022-12-20T03:08:41.428Z,99453.60
2022-12-20T03:11:07.789Z,99442.60
2022-12-20T03:13:34.206Z,99442.20
2022-12-20T03:16:00.663Z,99437.20
2022-12-20T03:18:27.287Z,99444.40
2022-12-20T03:20:53.820Z,99430.60
2022-12-20T03:23:22.110Z,99436.00
2022-12-20T03:25:48.899Z,99434.20
2022-12-20T03:28:15.734Z,99433.00
2022-12-20T03:30:42.242Z,99428.20
2022-12-20T03:33:08.710Z,99427.40
2022-12-20T03:35:35.370Z,99421.60
2022-12-20T03:38:01.910Z,99410.80
2022-12-20T03:40:28.296Z,99407.20
2022-12-20T03:42:54.746Z,99413.20
2022-12-20T03:45:21.267Z,99416.20
2022-12-20T03:47:47.666Z,99415.60
2022-12-20T03:50:15.275Z,99425.20
2022-12-20T03:52:41.713Z,99435.20
2022-12-20T03:55:09.741Z,99437.60
2022-12-20T03:57:36.468Z,99441.80
2022-12-20T04:00:04.116Z,99433.20
2022-12-20T04:02:30.692Z,99422.00
2022-12-20T04:04:57.274Z,99413.00
2022-12-20T04:07:23.767Z,99415.20
2022-12-20T04:09:50.148Z,99419.00
2022-12-20T04:12:16.577Z,99415.20
2022-12-20T04:14:43.005Z,99412.20
2022-12-20T04:17:09.503Z,99414.80
2022-12-20T04:19:35.952Z,99409.80
2022-12-20T04:22:05.621Z,99407.00
2022-12-20T04:24:32.851Z,99403.80
2022-12-20T04:26:59.210Z,99407.20
2022-12-20T04:29:25.736Z,99404.80
2022-12-20T04:31:52.313Z,99408.20
2022-12-20T04:34:18.769Z,99412.20
2022-12-20T04:36:45.238Z,99404.20
2022-12-20T04:39:11.756Z,99400.80
2022-12-20T04:41:40.378Z,99404.40
2022-12-20T04:44:06.867Z,99405.20
2022-12-20T04:46:33.413Z,99414.00
2022-12-20T04:49:00.170Z,99418.80
2022-12-20T04:51:28.295Z,99434.00
2022-12-20T04:53:55.983Z,99433.20
2022-12-20T04:56:29.247Z,99438.20
2022-12-20T04:58:58.895Z,99429.40
2022-12-20T05:01:25.960Z,99428.60
2022-12-20T05:03:53.400Z,99432.40
2022-12-20T05:06:19.980Z,99423.80
2022-12-20T05:08:47.378Z,99416.80
2022-12-20T05:11:14.458Z,99425.80
2022-12-20T05:13:41.121Z,99433.80
2022-12-20T05:16:08.020Z,99445.40
2022-12-20T05:18:34.656Z,99446.40
2022-12-20T05:21:21.179Z,99442.20
2022-12-20T05:24:07.039Z,99432.40
2022-12-20T05:26:37.872Z,99432.40
2022-12-20T05:29:06.376Z,99434.20
2022-12-20T05:31:33.373Z,99439.80
2022-12-20T05:34:00.253Z,99436.80
2022-12-20T05:36:27.086Z,99449.40
2022-12-20T05:38:56.737Z,99441.40
2022-12-20T05:41:24.627Z,99435.80
2022-12-20T05:43:51.039Z,99435.80
2022-12-20T05:46:17.736Z,99427.60
2022-12-20T05:48:44.245Z,99420.40
2022-12-20T05:51:10.696Z,99423.20
2022-12-20T05:53:37.166Z,99417.40
2022-12-20T05:56:03.968Z,99420.20
2022-12-20T05:58:30.415Z,99425.60
2022-12-20T06:00:56.952Z,99416.80
2022-12-20T06:03:23.693Z,99407.20
2022-12-20T06:05:50.195Z,99399.80
2022-12-20T06:08:16.674Z,99395.00
2022-12-20T06:10:43.127Z,99406.20
2022-12-20T06:13:10.811Z,99430.00
2022-12-20T06:15:38.265Z,99432.00
2022-12-20T06:18:06.044Z,99420.60
2022-12-20T06:20:36.665Z,99416.00
2022-12-20T06:23:04.238Z,99409.00
2022-12-20T06:25:30.811Z,99406.60
2022-12-20T06:27:57.717Z,99415.20
2022-12-20T06:30:28.799Z,99415.60
2022-12-20T06:32:58.379Z,99415.20
2022-12-20T06:35:24.959Z,99411.00
2022-12-20T06:37:51.408Z,99404.80
2022-12-20T06:40:17.997Z,99409.60
2022-12-20T06:42:44.720Z,99404.00
2022-12-20T06:45:11.862Z,99410.00
2022-12-20T06:47:38.315Z,99418.60
2022-12-20T06:50:06.876Z,99418.80
2022-12-20T06:52:33.422Z,99418.20
2022-12-20T06:54:59.872Z,99419.80
2022-12-20T06:57:26.323Z,99421.00
2022-12-20T06:59:53.473Z,99424.20
2022-12-20T07:02:19.874Z,99424.40
2022-12-20T07:04:46.454Z,99423.00
2022-12-20T07:07:13.889Z,99422.80
2022-12-20T07:09:41.424Z,99418.80
2022-12-20T07:12:09.664Z,99412.60
2022-12-20T07:14:36.065Z,99416.80
2022-12-20T07:17:05.149Z,99412.40
2022-12-20T07:19:31.984Z,99403.20
2022-12-20T07:21:59.070Z,99412.00
2022-12-20T07:24:25.688Z,99419.00
2022-12-20T07:26:52.724Z,99417.80
2022-12-20T07:29:19.367Z,99415.80
2022-12-20T07:31:46.213Z,99412.80
2022-12-20T07:34:12.757Z,99418.00
2022-12-20T07:36:39.702Z,99420.00
2022-12-20T07:39:06.246Z,99425.80
2022-12-20T07:41:32.703Z,99421.60
2022-12-20T07:43:59.580Z,99414.20
2022-12-20T07:46:26.606Z,99423.20
2022-12-20T07:48:53.119Z,99428.60
2022-12-20T07:51:34.388Z,99431.00
2022-12-20T07:54:19.415Z,99431.20
2022-12-20T07:56:51.759Z,99426.20
2022-12-20T07:59:28.202Z,99418.00
2022-12-20T08:02:02.321Z,99420.00
2022-12-20T08:04:31.701Z,99414.40
2022-12-20T08:07:01.799Z,99403.80
2022-12-20T08:09:36.444Z,99397.00
2022-12-20T08:12:03.552Z,99397.20
2022-12-20T08:14:30.327Z,99401.80
2022-12-20T08:16:56.749Z,99402.40
2022-12-20T08:19:28.271Z,99406.60
2022-12-20T08:21:58.340Z,99408.40
2022-12-20T08:24:25.023Z,99416.00
2022-12-20T08:26:51.459Z,99406.60
2022-12-20T08:29:18.045Z,99400.60
2022-12-20T08:31:49.657Z,99401.20
2022-12-20T08:34:17.473Z,99398.80
2022-12-20T08:36:43.993Z,99408.80
2022-12-20T08:39:11.446Z,99409.80
2022-12-20T08:41:38.045Z,99404.20
2022-12-20T08:44:05.946Z,99395.00
2022-12-20T08:46:32.845Z,99394.20
2022-12-20T08:48:59.366Z,99398.20
2022-12-20T08:51:25.853Z,99401.20
2022-12-20T08:53:52.772Z,99399.00
2022-12-20T08:56:19.929Z,99395.80
2022-12-20T08:58:47.720Z,99388.40
2022-12-20T09:01:18.680Z,99390.20
2022-12-20T09:03:47.519Z,99383.20
2022-12-20T09:06:20.981Z,99384.80
2022-12-20T09:08:48.461Z,99386.60
2022-12-20T09:11:20.727Z,99381.60
2022-12-20T09:13:50.523Z,99381.20
2022-12-20T09:16:20.687Z,99373.20
2022-12-20T09:18:53.427Z,99366.20
2022-12-20T09:21:22.572Z,99369.20
2022-12-20T09:23:54.715Z,99367.80
2022-12-20T09:26:23.145Z,99370.20
2022-12-20T09:28:51.061Z,99374.00
2022-12-20T09:31:21.573Z,99372.00
2022-12-20T09:33:48.091Z,99372.20
2022-12-20T09:36:18.547Z,99373.40
2022-12-20T09:38:46.877Z,99373.20
2022-12-20T09:41:35.211Z,99383.60
2022-12-20T09:44:14.024Z,99381.60
2022-12-20T09:46:44.054Z,99382.20
2022-12-20T09:49:18.961Z,99382.60
2022-12-20T09:52:21.742Z,99381.00
2022-12-20T09:55:26.103Z,99369.20
2022-12-20T09:58:18.934Z,99375.20
2022-12-20T10:00:53.864Z,99378.00
2022-12-20T10:03:35.784Z,99380.40
2022-12-20T10:06:42.570Z,99384.00
2022-12-20T10:10:02.912Z,99393.00
2022-12-20T10:12:56.854Z,99393.60
2022-12-20T10:15:34.419Z,99393.80
2022-12-20T10:18:28.218Z,99400.20
2022-12-20T10:21:29.978Z,99390.20
2022-12-20T10:24:03.931Z,99383.60
2022-12-20T10:26:33.815Z,99390.40
2022-12-20T10:29:00.211Z,99375.80
2022-12-20T10:31:28.213Z,99370.00
2022-12-20T10:33:55.649Z,99366.00
2022-12-20T10:36:35.271Z,99362.60
2022-12-20T10:39:08.613Z,99357.00
2022-12-20T10:41:42.624Z,99354.00
2022-12-20T10:44:21.404Z,99343.60
2022-12-20T10:46:53.941Z,99343.60
2022-12-20T10:49:36.859Z,99334.60
2022-12-20T10:52:09.286Z,99323.20
2022-12-20T10:54:42.567Z,99315.80
2022-12-20T10:57:31.664Z,99318.60
2022-12-20T11:00:02.933Z,99326.20
2022-12-20T11:02:42.105Z,99326.20
2022-12-20T11:05:09.844Z,99323.80
2022-12-20T11:07:41.285Z,99318.20
2022-12-20T11:10:23.748Z,99316.60
2022-12-20T11:13:00.104Z,99316.20
2022-12-20T11:15:36.822Z,99310.20
2022-12-20T11:18:16.934Z,99301.20
2022-12-20T11:21:16.086Z,99292.80
2022-12-20T11:24:16.690Z,99288.40
2022-12-20T11:27:03.214Z,99279.60
2022-12-20T11:30:04.662Z,99263.40
2022-12-20T11:33:01.132Z,99264.80
2022-12-20T11:35:40.468Z,99259.20
2022-12-20T11:38:10.232Z,99263.20
2022-12-20T11:40:58.402Z,99268.00
2022-12-20T11:47:23.608Z,99258.20
2022-12-20T11:50:19.095Z,99264.60
2022-12-20T11:52:56.415Z,99269.00
2022-12-20T11:55:31.410Z,99270.20
2022-12-20T11:58:19.381Z,99274.80
2022-12-20T12:01:01.207Z,99272.80
2022-12-20T12:03:37.659Z,99271.40
2022-12-20T12:06:18.373Z,99275.80
2022-12-20T12:08:58.227Z,99273.60
2022-12-20T12:12:05.225Z,99270.40
2022-12-20T12:14:41.686Z,99267.20
2022-12-20T12:17:52.183Z,99265.80
2022-12-20T12:20:40.530Z,99267.20
2022-12-20T12:23:25.808Z,99280.00
2022-12-20T12:25:52.956Z,99272.00
2022-12-20T12:28:22.532Z,99272.60
2022-12-20T12:31:03.503Z,99278.20
2022-12-20T12:34:02.622Z,99285.80
2022-12-20T12:37:26.488Z,99282.20
2022-12-20T12:40:33.073Z,99279.60
2022-12-20T12:43:29.348Z,99281.40
2022-12-20T12:45:59.800Z,99285.20
2022-12-20T12:48:45.035Z,99282.00
2022-12-20T12:51:15.236Z,99291.00
2022-12-20T12:53:55.173Z,99286.20
2022-12-20T12:56:44.939Z,99281.60
2022-12-20T12:59:12.095Z,99278.00
2022-12-20T13:01:56.874Z,99276.20
2022-12-20T13:04:29.054Z,99269.00
2022-12-20T13:07:24.853Z,99263.20
2022-12-20T13:09:51.360Z,99249.60
2022-12-20T13:12:36.078Z,99246.60
2022-12-20T13:15:21.800Z,99257.40
2022-12-20T13:18:00.687Z,99257.20
2022-12-20T13:20:31.285Z,99244.40
2022-12-20T13:23:13.127Z,99244.00
2022-12-20T13:25:47.070Z,99235.80
2022-12-20T13:28:19.568Z,99233.40
2022-12-20T13:31:09.810Z,99249.20
2022-12-20T13:33:46.472Z,99244.20
2022-12-20T13:36:12.819Z,99241.80
2022-12-20T13:38:48.251Z,99234.60
2022-12-20T13:41:39.075Z,99231.00
2022-12-20T13:44:14.867Z,99231.20
2022-12-20T13:46:52.388Z,99236.00
2022-12-20T13:49:27.696Z,99233.20
2022-12-20T13:52:21.817Z,99228.60
2022-12-20T13:54:54.342Z,99237.80
2022-12-20T13:57:30.268Z,99240.60
2022-12-20T14:00:07.062Z,99251.80
2022-12-20T14:02:41.922Z,99257.80
2022-12-20T14:05:26.725Z,99262.80
2022-12-20T14:08:02.543Z,99257.80
2022-12-20T14:10:32.705Z,99255.20
2022-12-20T14:12:59.892Z,99252.80
2022-12-20T14:15:34.598Z,99254.20
2022-12-20T14:18:19.943Z,99256.60
2022-12-20T14:20:54.784Z,99254.20
2022-12-20T14:23:35.009Z,99243.40
2022-12-20T14:26:03.091Z,99239.00
2022-12-20T14:29:03.764Z,99238.00
2022-12-20T14:31:41.238Z,99236.00
2022-12-20T14:34:13.751Z,99237.60
2022-12-20T14:36:48.610Z,99239.80
2022-12-20T14:39:34.096Z,99238.60
2022-12-20T14:42:07.260Z,99244.80
2022-12-20T14:44:34.854Z,99232.00
2022-12-20T14:47:22.450Z,99238.20
2022-12-20T14:49:54.338Z,99237.80
2022-12-20T14:52:33.323Z,99226.60
2022-12-20T14:55:10.376Z,99224.20
2022-12-20T14:57:37.313Z,99220.40
2022-12-20T15:00:18.902Z,99217.40
2022-12-20T15:02:45.478Z,99212.60
2022-12-20T15:05:33.880Z,99210.60
2022-12-20T15:08:17.113Z,99207.00
2022-12-20T15:11:19.144Z,99209.40
2022-12-20T15:13:54.464Z,99210.60
2022-12-20T15:16:28.014Z,99211.20
2022-12-20T15:19:03.224Z,99210.20
2022-12-20T15:21:36.100Z,99206.40
2022-12-20T15:24:09.389Z,99204.80
2022-12-20T15:26:36.878Z,99206.80
2022-12-20T15:29:04.549Z,99206.60
2022-12-20T15:31:35.625Z,99215.60
2022-12-20T15:34:37.660Z,99203.80
2022-12-20T15:37:05.733Z,99200.20
2022-12-20T15:39:33.877Z,99198.60
2022-12-20T15:42:04.590Z,99200.20
2022-12-20T15:44:33.461Z,99201.00
2022-12-20T15:46:59.987Z,99202.60
2022-12-20T15:49:31.365Z,99193.60
2022-12-20T15:51:58.193Z,99196.00
2022-12-20T15:54:29.728Z,99192.40
2022-12-20T15:56:59.817Z,99194.00
2022-12-20T15:59:58.933Z,99184.20
2022-12-20T16:02:25.674Z,99185.00
2022-12-20T16:04:55.441Z,99174.00
2022-12-20T16:07:22.883Z,99175.60
2022-12-20T16:09:49.882Z,99185.00
2022-12-20T16:12:22.574Z,99180.80
2022-12-20T16:14:48.989Z,99184.40
2022-12-20T16:17:16.330Z,99185.60
2022-12-20T16:19:43.850Z,99188.00
2022-12-20T16:22:20.480Z,99197.00
2022-12-20T16:24:47.529Z,99192.80
2022-12-20T16:27:15.157Z,99183.40
2022-12-20T16:29:41.893Z,99172.80
2022-12-20T16:32:17.432Z,99171.60
2022-12-20T16:34:45.302Z,99169.20
2022-12-20T16:37:12.153Z,99171.40
2022-12-20T16:39:39.374Z,99182.60
2022-12-20T16:42:18.634Z,99180.80
2022-12-20T16:44:46.136Z,99176.40
2022-12-20T16:47:14.623Z,99181.40
2022-12-20T16:49:51.253Z,99175.40
2022-12-20T16:52:19.561Z,99168.40
2022-12-20T16:54:46.195Z,99174.60
2022-12-20T16:57:12.721Z,99180.20
2022-12-20T16:59:39.230Z,99190.60
2022-12-20T17:02:30.749Z,99185.60
2022-12-20T17:04:57.488Z,99184.40
2022-12-20T17:07:24.456Z,99177.60
2022-12-20T17:10:10.528Z,99173.00
2022-12-20T17:12:37.179Z,99172.60
2022-12-20T17:15:04.847Z,99170.80
2022-12-20T17:17:31.301Z,99172.60
2022-12-20T17:19:58.790Z,99172.20
2022-12-20T17:25:35.107Z,99171.40
2022-12-20T17:28:01.676Z,99149.80
2022-12-20T17:30:28.164Z,99156.60
2022-12-20T17:32:54.711Z,99148.40
2022-12-20T17:35:33.683Z,99160.80
2022-12-20T17:38:00.422Z,99158.80
2022-12-20T17:40:28.852Z,99158.60
2022-12-20T17:42:55.888Z,99155.60
2022-12-20T17:45:33.065Z,99152.20
2022-12-20T17:47:59.848Z,99161.00
2022-12-20T17:50:27.715Z,99153.80
2022-12-20T17:52:54.777Z,99152.00
2022-12-20T17:55:28.675Z,99148.60
2022-12-20T17:57:56.201Z,99162.60
2022-12-20T18:00:30.707Z,99165.40
2022-12-20T18:03:01.341Z,99157.60
2022-12-20T18:05:27.875Z,99159.80
2022-12-20T18:07:55.993Z,99169.60
2022-12-20T18:10:24.028Z,99170.80
2022-12-20T18:12:51.416Z,99162.80
2022-12-20T18:15:20.022Z,99156.00
2022-12-20T18:17:46.956Z,99147.40
2022-12-20T18:20:14.440Z,99143.00
2022-12-20T18:22:41.165Z,99139.80
2022-12-20T18:25:08.593Z,99146.80
2022-12-20T18:27:41.419Z,99143.40
2022-12-20T18:30:10.333Z,99148.00
2022-12-20T18:32:36.938Z,99142.40
2022-12-20T18:35:03.755Z,99132.00
2022-12-20T18:37:32.399Z,99121.60
2022-12-20T18:39:58.874Z,99118.80
2022-12-20T18:42:25.452Z,99118.40
2022-12-20T18:44:51.890Z,99110.60
2022-12-20T18:47:18.361Z,99109.60
2022-12-20T18:49:44.789Z,99109.40
2022-12-20T18:52:11.366Z,99108.60
2022-12-20T18:54:37.844Z,99112.40
2022-12-20T18:57:06.462Z,99119.60
2022-12-20T18:59:34.463Z,99123.60
2022-12-20T19:02:01.203Z,99130.40
2022-12-20T19:04:27.796Z,99123.60
2022-12-20T19:06:54.835Z,99114.60
2022-12-20T19:09:22.010Z,99126.00
2022-12-20T19:11:54.608Z,99123.00
2022-12-20T19:14:23.481Z,99131.40
2022-12-20T19:16:51.750Z,99123.80
2022-12-20T19:19:18.466Z,99119.80
2022-12-20T19:21:44.957Z,99117.60
2022-12-20T19:24:12.080Z,99115.20
2022-12-20T19:26:39.644Z,99110.20
2022-12-20T19:29:07.662Z,99107.20
2022-12-20T19:31:37.217Z,99108.20
2022-12-20T19:34:08.448Z,99114.20
2022-12-20T19:36:42.837Z,99110.20
2022-12-20T19:39:18.172Z,99109.00
2022-12-20T19:41:54.883Z,99102.40
2022-12-20T19:44:22.219Z,99098.60
2022-12-20T19:46:48.651Z,99094.40
2022-12-20T19:49:15.067Z,99083.60
2022-12-20T19:51:41.800Z,99090.80
2022-12-20T19:54:09.741Z,99106.40
2022-12-20T19:56:36.373Z,99114.00
2022-12-20T19:59:03.592Z,99100.00
2022-12-20T20:01:30.235Z,99100.80
2022-12-20T20:04:00.271Z,99098.40
2022-12-20T20:06:28.258Z,99102.40
2022-12-20T20:08:59.497Z,99088.60
2022-12-20T20:11:27.265Z,99082.00
2022-12-20T20:13:53.846Z,99076.20
2022-12-20T20:16:22.794Z,99067.60
2022-12-20T20:18:50.675Z,99065.40
2022-12-20T20:21:22.620Z,99065.60
2022-12-20T20:23:51.377Z,99062.00
2022-12-20T20:26:25.066Z,99078.00
2022-12-20T20:28:52.593Z,99079.00
2022-12-20T20:31:20.666Z,99074.00
2022-12-20T20:33:48.738Z,99070.80
2022-12-20T20:36:19.710Z,99074.60
2022-12-20T20:38:46.931Z,99067.60
2022-12-20T20:41:14.260Z,99063.80
2022-12-20T20:43:41.769Z,99062.80
2022-12-20T20:46:11.844Z,99062.60
2022-12-20T20:48:40.062Z,99056.80
2022-12-20T20:51:07.259Z,99052.20
2022-12-20T20:53:34.698Z,99071.60
2022-12-20T20:56:03.407Z,99076.00
2022-12-20T20:58:30.557Z,99064.80
2022-12-20T21:00:59.591Z,99062.20
2022-12-20T21:03:28.422Z,99055.60
2022-12-20T21:08:41.764Z,99048.20
2022-12-20T21:11:09.179Z,99051.60
2022-12-20T21:13:36.547Z,99056.80
2022-12-20T21:16:20.969Z,99058.40
2022-12-20T21:18:52.685Z,99056.00
2022-12-20T21:21:20.564Z,99052.60
2022-12-20T21:23:48.066Z,99056.80
2022-12-20T21:26:17.526Z,99056.20
2022-12-20T21:28:43.964Z,99051.60
2022-12-20T21:31:14.388Z,99045.40
2022-12-20T21:33:41.220Z,99029.40
2022-12-20T21:36:14.018Z,99030.40
2022-12-20T21:38:40.960Z,99024.80
2022-12-20T21:41:13.135Z,99023.00
2022-12-20T21:43:39.969Z,99022.20
2022-12-20T21:46:11.211Z,99021.20
2022-12-20T21:48:39.656Z,99010.40
2022-12-20T21:51:10.280Z,99005.80
2022-12-20T21:53:53.659Z,99015.40
2022-12-20T21:56:22.496Z,99020.00
2022-12-20T21:58:50.668Z,99019.00
2022-12-20T22:01:22.559Z,99020.60
2022-12-20T22:03:55.371Z,99014.20
2022-12-20T22:06:21.960Z,99018.40
2022-12-20T22:08:48.615Z,99023.20
2022-12-20T22:11:18.579Z,99019.40
2022-12-20T22:13:46.606Z,99011.80
2022-12-20T22:16:21.061Z,98998.80
2022-12-20T22:18:51.324Z,98990.60
2022-12-20T22:21:20.543Z,98985.60
2022-12-20T22:23:47.780Z,98977.80
2022-12-20T22:26:18.890Z,98977.60
2022-12-20T22:28:49.463Z,98975.40
2022-12-20T22:31:16.783Z,98975.00
2022-12-20T22:33:45.021Z,98976.60
2022-12-20T22:36:14.973Z,98981.00
2022-12-20T22:38:43.177Z,98972.00
2022-12-20T22:41:16.913Z,98969.40
2022-12-20T22:43:45.633Z,98960.40
2022-12-20T22:46:15.465Z,98954.40
2022-12-20T22:48:42.927Z,98953.60
2022-12-20T22:51:14.503Z,98940.20
2022-12-20T22:53:42.057Z,98941.80
2022-12-20T22:56:10.240Z,98945.60
2022-12-20T22:58:39.030Z,98942.40
2022-12-20T23:01:10.303Z,98941.80
2022-12-20T23:03:37.521Z,98935.00
2022-12-20T23:06:06.685Z,98936.40
2022-12-20T23:08:36.361Z,98931.00
2022-12-20T23:11:24.853Z,98924.60
2022-12-20T23:14:10.277Z,98911.60
2022-12-20T23:16:38.268Z,98917.40
2022-12-20T23:19:04.911Z,98903.80
2022-12-20T23:21:50.040Z,98895.00
2022-12-20T23:24:16.636Z,98891.80
2022-12-20T23:26:43.780Z,98900.20
2022-12-20T23:29:11.650Z,98901.20
2022-12-20T23:31:38.258Z,98903.80
2022-12-20T23:34:04.992Z,98902.20
2022-12-20T23:36:34.994Z,98900.80
2022-12-20T23:39:02.385Z,98897.40
2022-12-20T23:41:29.293Z,98893.80
2022-12-20T23:43:56.289Z,98898.80
2022-12-20T23:46:23.189Z,98897.40
2022-12-20T23:48:53.581Z,98893.60
2022-12-20T23:51:21.571Z,98897.60
2022-12-20T23:53:50.805Z,98897.20
2022-12-20T23:56:20.830Z,98895.80
2022-12-20T23:58:53.882Z,98894.80
